sensor_id;sensor_type;location;lat;lon;timestamp;P1;durP1;ratioP1;P2;durP2;ratioP2
2792;SDS011;1404;49.650;8.574;2022-09-02T00:00:43;2.17;;;1.97;;
2792;SDS011;1404;49.650;8.574;2022-09-02T00:03:10;2.10;;;1.57;;
2792;SDS011;1404;49.650;8.574;2022-09-02T00:05:36;2.10;;;1.90;;
2792;SDS011;1404;49.650;8.574;2022-09-02T00:08:02;2.30;;;2.13;;
2792;SDS011;1404;49.650;8.574;2022-09-02T00:10:29;2.33;;;1.73;;
2792;SDS011;1404;49.650;8.574;2022-09-02T00:12:55;1.77;;;1.67;;
2792;SDS011;1404;49.650;8.574;2022-09-02T00:15:21;2.43;;;2.10;;
2792;SDS011;1404;49.650;8.574;2022-09-02T00:17:47;2.20;;;2.00;;
2792;SDS011;1404;49.650;8.574;2022-09-02T00:20:13;1.80;;;1.70;;
2792;SDS011;1404;49.650;8.574;2022-09-02T00:22:39;2.47;;;1.73;;
2792;SDS011;1404;49.650;8.574;2022-09-02T00:25:05;1.63;;;1.53;;
2792;SDS011;1404;49.650;8.574;2022-09-02T00:27:31;1.77;;;1.60;;
2792;SDS011;1404;49.650;8.574;2022-09-02T00:29:57;1.50;;;1.40;;
2792;SDS011;1404;49.650;8.574;2022-09-02T00:32:23;1.90;;;1.63;;
2792;SDS011;1404;49.650;8.574;2022-09-02T00:34:49;2.27;;;2.00;;
2792;SDS011;1404;49.650;8.574;2022-09-02T00:37:15;1.90;;;1.80;;
2792;SDS011;1404;49.650;8.574;2022-09-02T00:39:41;2.33;;;1.90;;
2792;SDS011;1404;49.650;8.574;2022-09-02T00:42:07;2.27;;;2.07;;
2792;SDS011;1404;49.650;8.574;2022-09-02T00:44:34;1.90;;;1.80;;
2792;SDS011;1404;49.650;8.574;2022-09-02T00:47:00;2.53;;;2.20;;
2792;SDS011;1404;49.650;8.574;2022-09-02T00:49:27;2.53;;;2.23;;
2792;SDS011;1404;49.650;8.574;2022-09-02T00:51:55;2.10;;;1.90;;
2792;SDS011;1404;49.650;8.574;2022-09-02T00:54:22;1.73;;;1.63;;
2792;SDS011;1404;49.650;8.574;2022-09-02T00:56:48;1.90;;;1.70;;
2792;SDS011;1404;49.650;8.574;2022-09-02T00:59:20;1.93;;;1.47;;
2792;SDS011;1404;49.650;8.574;2022-09-02T01:01:47;2.40;;;2.20;;
2792;SDS011;1404;49.650;8.574;2022-09-02T01:04:13;2.97;;;2.47;;
2792;SDS011;1404;49.650;8.574;2022-09-02T01:06:41;2.10;;;1.90;;
2792;SDS011;1404;49.650;8.574;2022-09-02T01:09:09;1.57;;;1.47;;
2792;SDS011;1404;49.650;8.574;2022-09-02T01:11:39;2.53;;;2.23;;
2792;SDS011;1404;49.650;8.574;2022-09-02T01:14:05;2.87;;;1.97;;
2792;SDS011;1404;49.650;8.574;2022-09-02T01:16:48;2.20;;;1.60;;
2792;SDS011;1404;49.650;8.574;2022-09-02T01:19:17;2.47;;;2.27;;
2792;SDS011;1404;49.650;8.574;2022-09-02T01:21:46;1.53;;;1.43;;
2792;SDS011;1404;49.650;8.574;2022-09-02T01:24:12;2.13;;;1.93;;
2792;SDS011;1404;49.650;8.574;2022-09-02T01:26:38;2.53;;;1.73;;
2792;SDS011;1404;49.650;8.574;2022-09-02T01:29:04;1.67;;;1.57;;
2792;SDS011;1404;49.650;8.574;2022-09-02T01:31:30;1.97;;;1.87;;
2792;SDS011;1404;49.650;8.574;2022-09-02T01:33:56;2.13;;;1.90;;
2792;SDS011;1404;49.650;8.574;2022-09-02T01:36:23;1.30;;;0.97;;
2792;SDS011;1404;49.650;8.574;2022-09-02T01:38:49;2.13;;;1.93;;
2792;SDS011;1404;49.650;8.574;2022-09-02T01:41:15;2.30;;;2.10;;
2792;SDS011;1404;49.650;8.574;2022-09-02T01:43:41;1.83;;;1.70;;
2792;SDS011;1404;49.650;8.574;2022-09-02T01:46:07;1.80;;;1.70;;
2792;SDS011;1404;49.650;8.574;2022-09-02T01:48:33;2.20;;;2.00;;
2792;SDS011;1404;49.650;8.574;2022-09-02T01:51:00;2.17;;;1.97;;
2792;SDS011;1404;49.650;8.574;2022-09-02T01:53:27;2.00;;;1.83;;
2792;SDS011;1404;49.650;8.574;2022-09-02T01:55:53;2.43;;;2.03;;
2792;SDS011;1404;49.650;8.574;2022-09-02T01:58:20;4.70;;;1.60;;
2792;SDS011;1404;49.650;8.574;2022-09-02T02:00:46;2.07;;;1.87;;
2792;SDS011;1404;49.650;8.574;2022-09-02T02:03:12;1.73;;;1.63;;
2792;SDS011;1404;49.650;8.574;2022-09-02T02:05:38;2.57;;;2.20;;
2792;SDS011;1404;49.650;8.574;2022-09-02T02:08:04;2.03;;;1.60;;
2792;SDS011;1404;49.650;8.574;2022-09-02T02:10:31;1.93;;;1.73;;
2792;SDS011;1404;49.650;8.574;2022-09-02T02:12:58;2.97;;;1.70;;
2792;SDS011;1404;49.650;8.574;2022-09-02T02:15:24;3.13;;;2.00;;
2792;SDS011;1404;49.650;8.574;2022-09-02T02:17:50;1.90;;;1.77;;
2792;SDS011;1404;49.650;8.574;2022-09-02T02:20:16;2.07;;;1.73;;
2792;SDS011;1404;49.650;8.574;2022-09-02T02:22:44;3.80;;;1.63;;
2792;SDS011;1404;49.650;8.574;2022-09-02T02:25:10;1.90;;;1.47;;
2792;SDS011;1404;49.650;8.574;2022-09-02T02:27:38;1.73;;;1.60;;
2792;SDS011;1404;49.650;8.574;2022-09-02T02:30:06;2.23;;;2.03;;
2792;SDS011;1404;49.650;8.574;2022-09-02T02:32:32;2.40;;;2.20;;
2792;SDS011;1404;49.650;8.574;2022-09-02T02:34:58;1.70;;;1.47;;
2792;SDS011;1404;49.650;8.574;2022-09-02T02:37:25;2.67;;;1.50;;
2792;SDS011;1404;49.650;8.574;2022-09-02T02:39:51;2.87;;;1.93;;
2792;SDS011;1404;49.650;8.574;2022-09-02T02:42:17;2.03;;;1.70;;
2792;SDS011;1404;49.650;8.574;2022-09-02T02:44:43;1.50;;;1.40;;
2792;SDS011;1404;49.650;8.574;2022-09-02T02:47:09;2.93;;;2.47;;
2792;SDS011;1404;49.650;8.574;2022-09-02T02:49:35;1.80;;;1.53;;
2792;SDS011;1404;49.650;8.574;2022-09-02T02:52:02;2.40;;;2.20;;
2792;SDS011;1404;49.650;8.574;2022-09-02T02:54:28;1.70;;;1.60;;
2792;SDS011;1404;49.650;8.574;2022-09-02T02:56:54;3.27;;;1.80;;
2792;SDS011;1404;49.650;8.574;2022-09-02T02:59:20;1.77;;;1.67;;
2792;SDS011;1404;49.650;8.574;2022-09-02T03:01:46;2.17;;;2.07;;
2792;SDS011;1404;49.650;8.574;2022-09-02T03:04:12;2.67;;;1.90;;
2792;SDS011;1404;49.650;8.574;2022-09-02T03:06:38;1.90;;;1.80;;
2792;SDS011;1404;49.650;8.574;2022-09-02T03:09:05;1.73;;;1.60;;
2792;SDS011;1404;49.650;8.574;2022-09-02T03:11:31;2.90;;;2.33;;
2792;SDS011;1404;49.650;8.574;2022-09-02T03:13:57;3.90;;;2.47;;
2792;SDS011;1404;49.650;8.574;2022-09-02T03:16:23;1.80;;;1.53;;
2792;SDS011;1404;49.650;8.574;2022-09-02T03:18:50;3.03;;;2.30;;
2792;SDS011;1404;49.650;8.574;2022-09-02T03:21:16;2.83;;;2.30;;
2792;SDS011;1404;49.650;8.574;2022-09-02T03:23:43;2.87;;;1.77;;
2792;SDS011;1404;49.650;8.574;2022-09-02T03:26:10;1.70;;;1.60;;
2792;SDS011;1404;49.650;8.574;2022-09-02T03:28:37;1.60;;;1.47;;
2792;SDS011;1404;49.650;8.574;2022-09-02T03:31:03;3.13;;;2.37;;
2792;SDS011;1404;49.650;8.574;2022-09-02T03:33:29;1.60;;;1.50;;
2792;SDS011;1404;49.650;8.574;2022-09-02T03:35:56;1.80;;;1.60;;
2792;SDS011;1404;49.650;8.574;2022-09-02T03:38:22;2.00;;;1.43;;
2792;SDS011;1404;49.650;8.574;2022-09-02T03:40:48;1.93;;;1.60;;
2792;SDS011;1404;49.650;8.574;2022-09-02T03:43:14;2.47;;;2.17;;
2792;SDS011;1404;49.650;8.574;2022-09-02T03:45:40;2.30;;;2.07;;
2792;SDS011;1404;49.650;8.574;2022-09-02T03:48:07;1.50;;;1.40;;
2792;SDS011;1404;49.650;8.574;2022-09-02T03:50:35;2.67;;;2.47;;
2792;SDS011;1404;49.650;8.574;2022-09-02T03:53:02;1.70;;;1.60;;
2792;SDS011;1404;49.650;8.574;2022-09-02T03:55:28;2.23;;;1.83;;
2792;SDS011;1404;49.650;8.574;2022-09-02T03:57:54;3.47;;;2.30;;
2792;SDS011;1404;49.650;8.574;2022-09-02T04:00:21;2.83;;;2.20;;
2792;SDS011;1404;49.650;8.574;2022-09-02T04:02:48;1.83;;;1.73;;
2792;SDS011;1404;49.650;8.574;2022-09-02T04:05:15;1.83;;;1.73;;
2792;SDS011;1404;49.650;8.574;2022-09-02T04:07:41;1.97;;;1.87;;
2792;SDS011;1404;49.650;8.574;2022-09-02T04:10:07;2.23;;;2.03;;
2792;SDS011;1404;49.650;8.574;2022-09-02T04:12:34;2.27;;;2.07;;
2792;SDS011;1404;49.650;8.574;2022-09-02T04:15:00;2.13;;;1.80;;
2792;SDS011;1404;49.650;8.574;2022-09-02T04:17:26;2.20;;;1.90;;
2792;SDS011;1404;49.650;8.574;2022-09-02T04:19:53;3.77;;;2.70;;
2792;SDS011;1404;49.650;8.574;2022-09-02T04:22:19;2.80;;;2.07;;
2792;SDS011;1404;49.650;8.574;2022-09-02T04:24:45;2.10;;;1.90;;
2792;SDS011;1404;49.650;8.574;2022-09-02T04:27:11;2.63;;;1.90;;
2792;SDS011;1404;49.650;8.574;2022-09-02T04:29:37;2.67;;;2.13;;
2792;SDS011;1404;49.650;8.574;2022-09-02T04:32:03;2.03;;;1.93;;
2792;SDS011;1404;49.650;8.574;2022-09-02T04:34:29;2.73;;;2.33;;
2792;SDS011;1404;49.650;8.574;2022-09-02T04:36:55;2.67;;;1.87;;
2792;SDS011;1404;49.650;8.574;2022-09-02T04:39:21;3.13;;;1.53;;
2792;SDS011;1404;49.650;8.574;2022-09-02T04:41:47;4.10;;;1.73;;
2792;SDS011;1404;49.650;8.574;2022-09-02T04:44:14;2.37;;;2.17;;
2792;SDS011;1404;49.650;8.574;2022-09-02T04:46:40;2.60;;;2.13;;
2792;SDS011;1404;49.650;8.574;2022-09-02T04:49:06;1.50;;;1.30;;
2792;SDS011;1404;49.650;8.574;2022-09-02T04:51:32;1.53;;;1.43;;
2792;SDS011;1404;49.650;8.574;2022-09-02T04:53:59;2.53;;;2.33;;
2792;SDS011;1404;49.650;8.574;2022-09-02T04:56:26;1.90;;;1.80;;
2792;SDS011;1404;49.650;8.574;2022-09-02T04:58:53;1.90;;;1.80;;
2792;SDS011;1404;49.650;8.574;2022-09-02T05:01:20;1.97;;;1.80;;
2792;SDS011;1404;49.650;8.574;2022-09-02T05:03:47;1.60;;;1.50;;
2792;SDS011;1404;49.650;8.574;2022-09-02T05:06:15;1.93;;;1.60;;
2792;SDS011;1404;49.650;8.574;2022-09-02T05:08:41;2.30;;;1.77;;
2792;SDS011;1404;49.650;8.574;2022-09-02T05:11:08;2.70;;;2.00;;
2792;SDS011;1404;49.650;8.574;2022-09-02T05:13:35;1.57;;;1.40;;
2792;SDS011;1404;49.650;8.574;2022-09-02T05:16:01;2.23;;;1.90;;
2792;SDS011;1404;49.650;8.574;2022-09-02T05:18:27;1.50;;;1.40;;
2792;SDS011;1404;49.650;8.574;2022-09-02T05:20:55;1.60;;;1.50;;
2792;SDS011;1404;49.650;8.574;2022-09-02T05:23:21;1.73;;;1.63;;
2792;SDS011;1404;49.650;8.574;2022-09-02T05:25:47;2.50;;;2.10;;
2792;SDS011;1404;49.650;8.574;2022-09-02T05:28:13;2.90;;;1.73;;
2792;SDS011;1404;49.650;8.574;2022-09-02T05:30:39;2.40;;;2.20;;
2792;SDS011;1404;49.650;8.574;2022-09-02T05:33:06;2.60;;;2.13;;
2792;SDS011;1404;49.650;8.574;2022-09-02T05:35:33;4.00;;;1.97;;
2792;SDS011;1404;49.650;8.574;2022-09-02T05:37:59;2.27;;;2.10;;
2792;SDS011;1404;49.650;8.574;2022-09-02T05:40:25;1.50;;;1.30;;
2792;SDS011;1404;49.650;8.574;2022-09-02T05:42:51;1.60;;;1.50;;
2792;SDS011;1404;49.650;8.574;2022-09-02T05:45:17;1.63;;;1.50;;
2792;SDS011;1404;49.650;8.574;2022-09-02T05:47:43;1.50;;;1.40;;
2792;SDS011;1404;49.650;8.574;2022-09-02T05:50:09;2.83;;;2.00;;
2792;SDS011;1404;49.650;8.574;2022-09-02T05:52:35;1.63;;;1.53;;
2792;SDS011;1404;49.650;8.574;2022-09-02T05:55:01;1.70;;;1.60;;
2792;SDS011;1404;49.650;8.574;2022-09-02T05:57:28;2.13;;;2.00;;
2792;SDS011;1404;49.650;8.574;2022-09-02T05:59:54;2.40;;;2.00;;
2792;SDS011;1404;49.650;8.574;2022-09-02T06:02:21;2.50;;;2.30;;
2792;SDS011;1404;49.650;8.574;2022-09-02T06:04:48;2.60;;;2.00;;
2792;SDS011;1404;49.650;8.574;2022-09-02T06:07:16;2.20;;;1.97;;
2792;SDS011;1404;49.650;8.574;2022-09-02T06:09:42;1.87;;;1.53;;
2792;SDS011;1404;49.650;8.574;2022-09-02T06:12:09;1.50;;;1.40;;
2792;SDS011;1404;49.650;8.574;2022-09-02T06:14:35;2.37;;;1.83;;
2792;SDS011;1404;49.650;8.574;2022-09-02T06:17:02;2.10;;;1.90;;
2792;SDS011;1404;49.650;8.574;2022-09-02T06:19:28;2.80;;;2.33;;
2792;SDS011;1404;49.650;8.574;2022-09-02T06:21:57;2.13;;;1.60;;
2792;SDS011;1404;49.650;8.574;2022-09-02T06:24:24;2.77;;;2.57;;
2792;SDS011;1404;49.650;8.574;2022-09-02T06:26:51;2.07;;;1.87;;
2792;SDS011;1404;49.650;8.574;2022-09-02T06:29:17;2.30;;;2.10;;
2792;SDS011;1404;49.650;8.574;2022-09-02T06:31:44;1.87;;;1.73;;
2792;SDS011;1404;49.650;8.574;2022-09-02T06:34:11;2.40;;;2.20;;
2792;SDS011;1404;49.650;8.574;2022-09-02T06:36:39;2.23;;;1.70;;
2792;SDS011;1404;49.650;8.574;2022-09-02T06:39:05;2.10;;;2.00;;
2792;SDS011;1404;49.650;8.574;2022-09-02T06:41:31;1.67;;;1.57;;
2792;SDS011;1404;49.650;8.574;2022-09-02T06:43:59;3.27;;;2.30;;
2792;SDS011;1404;49.650;8.574;2022-09-02T06:46:27;2.50;;;1.67;;
2792;SDS011;1404;49.650;8.574;2022-09-02T06:48:53;2.17;;;1.97;;
2792;SDS011;1404;49.650;8.574;2022-09-02T06:51:20;5.43;;;1.90;;
2792;SDS011;1404;49.650;8.574;2022-09-02T06:53:47;1.70;;;1.60;;
2792;SDS011;1404;49.650;8.574;2022-09-02T06:56:13;2.43;;;2.23;;
2792;SDS011;1404;49.650;8.574;2022-09-02T06:58:39;3.77;;;2.00;;
2792;SDS011;1404;49.650;8.574;2022-09-02T07:01:05;2.13;;;1.97;;
2792;SDS011;1404;49.650;8.574;2022-09-02T07:03:32;2.30;;;1.60;;
2792;SDS011;1404;49.650;8.574;2022-09-02T07:06:17;1.77;;;1.67;;
2792;SDS011;1404;49.650;8.574;2022-09-02T07:08:43;1.30;;;1.20;;
2792;SDS011;1404;49.650;8.574;2022-09-02T07:11:18;2.23;;;1.77;;
2792;SDS011;1404;49.650;8.574;2022-09-02T07:13:44;1.77;;;1.40;;
2792;SDS011;1404;49.650;8.574;2022-09-02T07:16:11;2.23;;;1.43;;
2792;SDS011;1404;49.650;8.574;2022-09-02T07:18:37;1.13;;;1.03;;
2792;SDS011;1404;49.650;8.574;2022-09-02T07:21:03;1.50;;;1.13;;
2792;SDS011;1404;49.650;8.574;2022-09-02T07:23:29;1.17;;;1.07;;
2792;SDS011;1404;49.650;8.574;2022-09-02T07:25:55;1.33;;;1.23;;
2792;SDS011;1404;49.650;8.574;2022-09-02T07:28:22;0.77;;;0.70;;
2792;SDS011;1404;49.650;8.574;2022-09-02T07:30:48;1.23;;;1.13;;
2792;SDS011;1404;49.650;8.574;2022-09-02T07:33:18;2.37;;;0.77;;
2792;SDS011;1404;49.650;8.574;2022-09-02T07:35:45;1.57;;;0.80;;
2792;SDS011;1404;49.650;8.574;2022-09-02T07:38:11;1.67;;;1.00;;
2792;SDS011;1404;49.650;8.574;2022-09-02T07:40:39;0.80;;;0.80;;
2792;SDS011;1404;49.650;8.574;2022-09-02T07:43:07;1.00;;;0.90;;
2792;SDS011;1404;49.650;8.574;2022-09-02T07:45:33;1.33;;;0.80;;
2792;SDS011;1404;49.650;8.574;2022-09-02T07:48:00;0.80;;;0.80;;
2792;SDS011;1404;49.650;8.574;2022-09-02T07:50:27;1.57;;;0.90;;
2792;SDS011;1404;49.650;8.574;2022-09-02T07:52:54;1.13;;;1.03;;
2792;SDS011;1404;49.650;8.574;2022-09-02T07:55:20;1.07;;;0.97;;
2792;SDS011;1404;49.650;8.574;2022-09-02T07:57:46;1.10;;;1.00;;
2792;SDS011;1404;49.650;8.574;2022-09-02T08:00:13;0.80;;;0.70;;
2792;SDS011;1404;49.650;8.574;2022-09-02T08:02:41;0.80;;;0.70;;
2792;SDS011;1404;49.650;8.574;2022-09-02T08:05:08;1.63;;;1.30;;
2792;SDS011;1404;49.650;8.574;2022-09-02T08:07:34;0.97;;;0.80;;
2792;SDS011;1404;49.650;8.574;2022-09-02T08:10:00;1.00;;;0.70;;
2792;SDS011;1404;49.650;8.574;2022-09-02T08:12:26;0.83;;;0.83;;
2792;SDS011;1404;49.650;8.574;2022-09-02T08:14:53;0.80;;;0.80;;
2792;SDS011;1404;49.650;8.574;2022-09-02T08:17:22;1.23;;;0.90;;
2792;SDS011;1404;49.650;8.574;2022-09-02T08:19:48;1.20;;;0.80;;
2792;SDS011;1404;49.650;8.574;2022-09-02T08:22:14;2.50;;;0.83;;
2792;SDS011;1404;49.650;8.574;2022-09-02T08:24:40;0.93;;;0.87;;
2792;SDS011;1404;49.650;8.574;2022-09-02T08:27:06;0.90;;;0.83;;
2792;SDS011;1404;49.650;8.574;2022-09-02T08:29:33;0.70;;;0.63;;
2792;SDS011;1404;49.650;8.574;2022-09-02T08:31:59;1.03;;;0.67;;
2792;SDS011;1404;49.650;8.574;2022-09-02T08:34:26;1.20;;;0.87;;
2792;SDS011;1404;49.650;8.574;2022-09-02T08:36:53;1.10;;;1.00;;
2792;SDS011;1404;49.650;8.574;2022-09-02T08:39:19;0.73;;;0.73;;
2792;SDS011;1404;49.650;8.574;2022-09-02T08:44:11;0.73;;;0.70;;
2792;SDS011;1404;49.650;8.574;2022-09-02T08:46:38;0.97;;;0.70;;
2792;SDS011;1404;49.650;8.574;2022-09-02T08:49:13;0.90;;;0.83;;
2792;SDS011;1404;49.650;8.574;2022-09-02T08:51:57;0.80;;;0.67;;
2792;SDS011;1404;49.650;8.574;2022-09-02T08:54:38;1.00;;;0.90;;
2792;SDS011;1404;49.650;8.574;2022-09-02T08:57:08;1.43;;;1.00;;
2792;SDS011;1404;49.650;8.574;2022-09-02T08:59:35;1.10;;;0.80;;
2792;SDS011;1404;49.650;8.574;2022-09-02T09:04:43;1.50;;;1.10;;
2792;SDS011;1404;49.650;8.574;2022-09-02T09:17:41;0.70;;;0.70;;
2792;SDS011;1404;49.650;8.574;2022-09-02T09:20:21;0.70;;;0.60;;
2792;SDS011;1404;49.650;8.574;2022-09-02T09:22:50;0.70;;;0.50;;
2792;SDS011;1404;49.650;8.574;2022-09-02T09:25:17;0.90;;;0.70;;
2792;SDS011;1404;49.650;8.574;2022-09-02T09:27:43;1.37;;;0.70;;
2792;SDS011;1404;49.650;8.574;2022-09-02T09:30:10;1.77;;;0.70;;
2792;SDS011;1404;49.650;8.574;2022-09-02T09:32:41;1.13;;;0.93;;
2792;SDS011;1404;49.650;8.574;2022-09-02T09:35:08;0.97;;;0.87;;
2792;SDS011;1404;49.650;8.574;2022-09-02T09:37:36;0.87;;;0.60;;
2792;SDS011;1404;49.650;8.574;2022-09-02T09:50:31;0.80;;;0.80;;
2792;SDS011;1404;49.650;8.574;2022-09-02T09:53:13;1.00;;;0.73;;
2792;SDS011;1404;49.650;8.574;2022-09-02T09:58:31;0.77;;;0.50;;
2792;SDS011;1404;49.650;8.574;2022-09-02T10:01:09;0.80;;;0.63;;
2792;SDS011;1404;49.650;8.574;2022-09-02T10:03:35;0.60;;;0.50;;
2792;SDS011;1404;49.650;8.574;2022-09-02T10:06:16;1.40;;;1.10;;
2792;SDS011;1404;49.650;8.574;2022-09-02T10:08:52;1.10;;;0.80;;
2792;SDS011;1404;49.650;8.574;2022-09-02T10:11:20;0.80;;;0.43;;
2792;SDS011;1404;49.650;8.574;2022-09-02T10:13:47;1.43;;;0.60;;
2792;SDS011;1404;49.650;8.574;2022-09-02T10:19:23;2.40;;;0.90;;
2792;SDS011;1404;49.650;8.574;2022-09-02T10:22:15;0.80;;;0.70;;
2792;SDS011;1404;49.650;8.574;2022-09-02T10:27:14;0.70;;;0.60;;
2792;SDS011;1404;49.650;8.574;2022-09-02T10:32:35;0.77;;;0.53;;
2792;SDS011;1404;49.650;8.574;2022-09-02T10:35:10;1.03;;;0.60;;
2792;SDS011;1404;49.650;8.574;2022-09-02T10:40:12;0.70;;;0.60;;
2792;SDS011;1404;49.650;8.574;2022-09-02T10:47:42;1.00;;;0.87;;
2792;SDS011;1404;49.650;8.574;2022-09-02T10:50:21;0.77;;;0.50;;
2792;SDS011;1404;49.650;8.574;2022-09-02T10:58:06;0.70;;;0.50;;
2792;SDS011;1404;49.650;8.574;2022-09-02T11:00:33;1.93;;;0.97;;
2792;SDS011;1404;49.650;8.574;2022-09-02T11:05:27;0.70;;;0.60;;
2792;SDS011;1404;49.650;8.574;2022-09-02T11:13:20;1.37;;;0.80;;
2792;SDS011;1404;49.650;8.574;2022-09-02T11:18:40;0.90;;;0.50;;
2792;SDS011;1404;49.650;8.574;2022-09-02T11:21:23;0.80;;;0.70;;
2792;SDS011;1404;49.650;8.574;2022-09-02T11:24:00;1.13;;;0.53;;
2792;SDS011;1404;49.650;8.574;2022-09-02T11:26:28;0.80;;;0.70;;
2792;SDS011;1404;49.650;8.574;2022-09-02T11:31:32;0.60;;;0.60;;
2792;SDS011;1404;49.650;8.574;2022-09-02T11:34:08;0.70;;;0.47;;
2792;SDS011;1404;49.650;8.574;2022-09-02T11:36:40;0.70;;;0.50;;
2792;SDS011;1404;49.650;8.574;2022-09-02T11:39:10;1.10;;;0.80;;
2792;SDS011;1404;49.650;8.574;2022-09-02T11:54:45;0.70;;;0.50;;
2792;SDS011;1404;49.650;8.574;2022-09-02T11:57:14;0.70;;;0.70;;
2792;SDS011;1404;49.650;8.574;2022-09-02T12:07:59;1.00;;;0.90;;
2792;SDS011;1404;49.650;8.574;2022-09-02T12:13:11;0.80;;;0.80;;
2792;SDS011;1404;49.650;8.574;2022-09-02T12:18:41;0.60;;;0.50;;
2792;SDS011;1404;49.650;8.574;2022-09-02T12:21:08;0.73;;;0.60;;
2792;SDS011;1404;49.650;8.574;2022-09-02T12:26:29;0.77;;;0.40;;
2792;SDS011;1404;49.650;8.574;2022-09-02T12:31:48;0.70;;;0.50;;
2792;SDS011;1404;49.650;8.574;2022-09-02T12:36:56;0.70;;;0.70;;
2792;SDS011;1404;49.650;8.574;2022-09-02T12:50:06;1.00;;;0.50;;
2792;SDS011;1404;49.650;8.574;2022-09-02T12:55:23;0.70;;;0.40;;
2792;SDS011;1404;49.650;8.574;2022-09-02T12:57:48;0.90;;;0.70;;
2792;SDS011;1404;49.650;8.574;2022-09-02T13:00:25;1.00;;;0.70;;
2792;SDS011;1404;49.650;8.574;2022-09-02T13:20:23;0.60;;;0.50;;
2792;SDS011;1404;49.650;8.574;2022-09-02T13:23:15;0.60;;;0.50;;
2792;SDS011;1404;49.650;8.574;2022-09-02T13:26:34;0.60;;;0.57;;
2792;SDS011;1404;49.650;8.574;2022-09-02T13:28:37;0.80;;;0.60;;
2792;SDS011;1404;49.650;8.574;2022-09-02T13:33:44;0.60;;;0.50;;
2792;SDS011;1404;49.650;8.574;2022-09-02T13:36:10;0.60;;;0.50;;
2792;SDS011;1404;49.650;8.574;2022-09-02T13:38:46;0.63;;;0.47;;
2792;SDS011;1404;49.650;8.574;2022-09-02T13:41:26;0.93;;;0.83;;
2792;SDS011;1404;49.650;8.574;2022-09-02T13:44:05;0.90;;;0.60;;
2792;SDS011;1404;49.650;8.574;2022-09-02T13:46:31;1.10;;;0.80;;
2792;SDS011;1404;49.650;8.574;2022-09-02T13:48:57;0.70;;;0.60;;
2792;SDS011;1404;49.650;8.574;2022-09-02T13:51:23;0.70;;;0.70;;
2792;SDS011;1404;49.650;8.574;2022-09-02T13:53:50;0.70;;;0.67;;
2792;SDS011;1404;49.650;8.574;2022-09-02T13:56:16;0.60;;;0.57;;
2792;SDS011;1404;49.650;8.574;2022-09-02T13:58:52;0.70;;;0.50;;
2792;SDS011;1404;49.650;8.574;2022-09-02T14:03:53;0.60;;;0.60;;
2792;SDS011;1404;49.650;8.574;2022-09-02T14:06:25;1.27;;;0.60;;
2792;SDS011;1404;49.650;8.574;2022-09-02T14:08:53;0.60;;;0.50;;
2792;SDS011;1404;49.650;8.574;2022-09-02T14:11:20;0.70;;;0.60;;
2792;SDS011;1404;49.650;8.574;2022-09-02T14:13:47;0.73;;;0.73;;
2792;SDS011;1404;49.650;8.574;2022-09-02T14:19:10;0.90;;;0.60;;
2792;SDS011;1404;49.650;8.574;2022-09-02T14:21:46;0.70;;;0.60;;
2792;SDS011;1404;49.650;8.574;2022-09-02T14:24:13;0.97;;;0.70;;
2792;SDS011;1404;49.650;8.574;2022-09-02T14:26:41;0.60;;;0.60;;
2792;SDS011;1404;49.650;8.574;2022-09-02T14:29:07;2.60;;;1.80;;
2792;SDS011;1404;49.650;8.574;2022-09-02T14:31:36;0.97;;;0.80;;
2792;SDS011;1404;49.650;8.574;2022-09-02T14:34:03;0.80;;;0.70;;
2792;SDS011;1404;49.650;8.574;2022-09-02T14:36:36;0.70;;;0.60;;
2792;SDS011;1404;49.650;8.574;2022-09-02T14:39:11;0.70;;;0.70;;
2792;SDS011;1404;49.650;8.574;2022-09-02T14:41:41;0.77;;;0.60;;
2792;SDS011;1404;49.650;8.574;2022-09-02T14:44:09;2.53;;;1.77;;
2792;SDS011;1404;49.650;8.574;2022-09-02T14:46:42;0.60;;;0.50;;
2792;SDS011;1404;49.650;8.574;2022-09-02T14:49:09;1.23;;;0.80;;
2792;SDS011;1404;49.650;8.574;2022-09-02T14:51:46;0.70;;;0.60;;
2792;SDS011;1404;49.650;8.574;2022-09-02T14:54:32;0.70;;;0.60;;
2792;SDS011;1404;49.650;8.574;2022-09-02T14:56:58;0.90;;;0.60;;
2792;SDS011;1404;49.650;8.574;2022-09-02T14:59:24;0.60;;;0.60;;
2792;SDS011;1404;49.650;8.574;2022-09-02T15:01:50;1.70;;;0.80;;
2792;SDS011;1404;49.650;8.574;2022-09-02T15:04:17;0.70;;;0.60;;
2792;SDS011;1404;49.650;8.574;2022-09-02T15:06:44;1.30;;;0.97;;
2792;SDS011;1404;49.650;8.574;2022-09-02T15:09:11;3.67;;;1.83;;
2792;SDS011;1404;49.650;8.574;2022-09-02T15:11:39;0.80;;;0.60;;
2792;SDS011;1404;49.650;8.574;2022-09-02T15:14:06;0.80;;;0.50;;
2792;SDS011;1404;49.650;8.574;2022-09-02T15:16:33;0.70;;;0.57;;
2792;SDS011;1404;49.650;8.574;2022-09-02T15:18:59;0.83;;;0.80;;
2792;SDS011;1404;49.650;8.574;2022-09-02T15:21:25;0.70;;;0.50;;
2792;SDS011;1404;49.650;8.574;2022-09-02T15:23:51;1.27;;;0.83;;
2792;SDS011;1404;49.650;8.574;2022-09-02T15:26:17;0.77;;;0.50;;
2792;SDS011;1404;49.650;8.574;2022-09-02T15:28:44;0.77;;;0.53;;
2792;SDS011;1404;49.650;8.574;2022-09-02T15:31:10;0.70;;;0.50;;
2792;SDS011;1404;49.650;8.574;2022-09-02T15:33:36;0.70;;;0.60;;
2792;SDS011;1404;49.650;8.574;2022-09-02T15:36:05;1.20;;;0.70;;
2792;SDS011;1404;49.650;8.574;2022-09-02T15:38:32;0.60;;;0.57;;
2792;SDS011;1404;49.650;8.574;2022-09-02T15:41:11;1.53;;;0.60;;
2792;SDS011;1404;49.650;8.574;2022-09-02T15:43:37;0.70;;;0.60;;
2792;SDS011;1404;49.650;8.574;2022-09-02T15:46:03;1.00;;;0.83;;
2792;SDS011;1404;49.650;8.574;2022-09-02T15:48:39;0.73;;;0.60;;
2792;SDS011;1404;49.650;8.574;2022-09-02T15:51:12;1.13;;;0.70;;
2792;SDS011;1404;49.650;8.574;2022-09-02T15:53:38;0.80;;;0.80;;
2792;SDS011;1404;49.650;8.574;2022-09-02T15:56:04;1.10;;;0.73;;
2792;SDS011;1404;49.650;8.574;2022-09-02T15:58:39;0.90;;;0.67;;
2792;SDS011;1404;49.650;8.574;2022-09-02T16:01:05;0.70;;;0.50;;
2792;SDS011;1404;49.650;8.574;2022-09-02T16:03:31;1.00;;;0.57;;
2792;SDS011;1404;49.650;8.574;2022-09-02T16:06:00;0.70;;;0.53;;
2792;SDS011;1404;49.650;8.574;2022-09-02T16:08:27;0.60;;;0.60;;
2792;SDS011;1404;49.650;8.574;2022-09-02T16:10:53;0.60;;;0.40;;
2792;SDS011;1404;49.650;8.574;2022-09-02T16:13:19;0.60;;;0.50;;
2792;SDS011;1404;49.650;8.574;2022-09-02T16:15:45;0.60;;;0.57;;
2792;SDS011;1404;49.650;8.574;2022-09-02T16:18:11;1.23;;;0.70;;
2792;SDS011;1404;49.650;8.574;2022-09-02T16:20:38;0.90;;;0.60;;
2792;SDS011;1404;49.650;8.574;2022-09-02T16:23:04;1.40;;;0.73;;
2792;SDS011;1404;49.650;8.574;2022-09-02T16:25:30;1.20;;;0.50;;
2792;SDS011;1404;49.650;8.574;2022-09-02T16:27:56;1.07;;;0.77;;
2792;SDS011;1404;49.650;8.574;2022-09-02T16:30:22;1.00;;;0.93;;
2792;SDS011;1404;49.650;8.574;2022-09-02T16:32:49;0.60;;;0.50;;
2792;SDS011;1404;49.650;8.574;2022-09-02T16:35:15;1.23;;;0.47;;
2792;SDS011;1404;49.650;8.574;2022-09-02T16:37:41;0.90;;;0.50;;
2792;SDS011;1404;49.650;8.574;2022-09-02T16:40:08;0.80;;;0.53;;
2792;SDS011;1404;49.650;8.574;2022-09-02T16:42:34;1.37;;;0.57;;
2792;SDS011;1404;49.650;8.574;2022-09-02T16:45:01;1.17;;;0.70;;
2792;SDS011;1404;49.650;8.574;2022-09-02T16:47:28;0.90;;;0.80;;
2792;SDS011;1404;49.650;8.574;2022-09-02T16:49:55;0.90;;;0.70;;
2792;SDS011;1404;49.650;8.574;2022-09-02T16:52:21;0.60;;;0.50;;
2792;SDS011;1404;49.650;8.574;2022-09-02T16:54:47;1.17;;;0.70;;
2792;SDS011;1404;49.650;8.574;2022-09-02T16:57:13;0.60;;;0.60;;
2792;SDS011;1404;49.650;8.574;2022-09-02T16:59:39;1.20;;;0.90;;
2792;SDS011;1404;49.650;8.574;2022-09-02T17:02:05;0.70;;;0.50;;
2792;SDS011;1404;49.650;8.574;2022-09-02T17:04:32;1.00;;;0.87;;
2792;SDS011;1404;49.650;8.574;2022-09-02T17:06:58;1.37;;;0.70;;
2792;SDS011;1404;49.650;8.574;2022-09-02T17:09:24;0.70;;;0.60;;
2792;SDS011;1404;49.650;8.574;2022-09-02T17:11:50;0.80;;;0.50;;
2792;SDS011;1404;49.650;8.574;2022-09-02T17:14:16;0.73;;;0.50;;
2792;SDS011;1404;49.650;8.574;2022-09-02T17:16:44;0.80;;;0.70;;
2792;SDS011;1404;49.650;8.574;2022-09-02T17:19:10;0.87;;;0.67;;
2792;SDS011;1404;49.650;8.574;2022-09-02T17:21:44;0.60;;;0.50;;
2792;SDS011;1404;49.650;8.574;2022-09-02T17:24:11;0.83;;;0.50;;
2792;SDS011;1404;49.650;8.574;2022-09-02T17:26:38;0.60;;;0.40;;
2792;SDS011;1404;49.650;8.574;2022-09-02T17:29:06;1.10;;;0.50;;
2792;SDS011;1404;49.650;8.574;2022-09-02T17:31:32;0.97;;;0.60;;
2792;SDS011;1404;49.650;8.574;2022-09-02T17:33:59;0.97;;;0.77;;
2792;SDS011;1404;49.650;8.574;2022-09-02T17:36:26;0.87;;;0.40;;